createdAt,value
2022-10-31T00:00:09.362Z,8.13
2022-10-31T00:02:19.234Z,8.73
2022-10-31T00:04:21.897Z,8.93
2022-10-31T00:06:25.473Z,10.07
2022-10-31T00:08:28.101Z,8.93
2022-10-31T00:10:30.669Z,8.57
2022-10-31T00:12:33.261Z,8.17
2022-10-31T00:14:35.779Z,8.25
2022-10-31T00:16:38.289Z,7.97
2022-10-31T00:18:40.830Z,8.23
2022-10-31T00:20:43.497Z,8.50
2022-10-31T00:22:46.048Z,9.10
2022-10-31T00:24:48.650Z,8.63
2022-10-31T00:26:51.184Z,9.03
2022-10-31T00:28:59.188Z,9.17
2022-10-31T00:31:06.230Z,8.70
2022-10-31T00:33:08.797Z,9.70
2022-10-31T00:35:11.394Z,10.45
2022-10-31T00:37:13.957Z,9.67
2022-10-31T00:39:18.426Z,9.30
2022-10-31T00:41:21.087Z,9.60
2022-10-31T00:43:23.930Z,9.55
2022-10-31T00:45:26.474Z,8.13
2022-10-31T00:47:29.465Z,7.67
2022-10-31T00:49:32.058Z,8.20
2022-10-31T00:51:34.634Z,8.40
2022-10-31T00:53:37.209Z,8.70
2022-10-31T00:55:39.797Z,8.43
2022-10-31T00:57:42.421Z,8.50
2022-10-31T00:59:46.961Z,8.70
2022-10-31T01:01:49.679Z,8.50
2022-10-31T01:03:52.338Z,9.00
2022-10-31T01:06:06.548Z,8.40
2022-10-31T01:08:09.161Z,8.40
2022-10-31T01:10:12.192Z,8.73
2022-10-31T01:12:14.771Z,8.83
2022-10-31T01:14:17.810Z,7.30
2022-10-31T01:16:24.516Z,7.27
2022-10-31T01:18:28.154Z,8.40
2022-10-31T01:20:30.648Z,7.70
2022-10-31T01:22:34.369Z,7.33
2022-10-31T01:24:36.904Z,6.80
2022-10-31T01:26:39.484Z,7.53
2022-10-31T01:28:47.895Z,7.90
2022-10-31T01:30:50.515Z,8.00
2022-10-31T01:32:53.039Z,9.60
2022-10-31T01:34:55.936Z,9.03
2022-10-31T01:36:58.523Z,9.50
2022-10-31T01:39:08.482Z,9.90
2022-10-31T01:41:15.014Z,9.23
2022-10-31T01:43:18.856Z,8.47
2022-10-31T01:45:21.560Z,9.00
2022-10-31T01:47:38.063Z,9.40
2022-10-31T01:50:12.332Z,9.40
2022-10-31T01:52:38.837Z,9.23
2022-10-31T01:54:48.864Z,7.90
2022-10-31T01:56:54.791Z,7.70
2022-10-31T01:59:00.788Z,8.03
2022-10-31T02:01:07.829Z,7.40
2022-10-31T02:03:12.474Z,7.10
2022-10-31T02:05:19.955Z,10.13
2022-10-31T02:07:34.192Z,10.07
2022-10-31T02:09:37.659Z,10.20
2022-10-31T02:11:41.471Z,10.93
2022-10-31T02:13:48.552Z,9.30
2022-10-31T02:15:56.813Z,9.80
2022-10-31T02:18:00.415Z,8.73
2022-10-31T02:20:22.190Z,9.43
2022-10-31T02:22:57.795Z,9.70
2022-10-31T02:25:11.876Z,8.07
2022-10-31T02:27:49.641Z,8.10
2022-10-31T02:30:31.925Z,7.07
2022-10-31T02:32:43.671Z,8.80
2022-10-31T02:35:22.068Z,8.10
2022-10-31T02:37:39.611Z,8.55
2022-10-31T02:40:06.125Z,9.10
2022-10-31T02:43:12.560Z,7.90
2022-10-31T02:45:46.345Z,7.27
2022-10-31T02:47:51.640Z,6.72
2022-10-31T02:50:14.846Z,7.83
2022-10-31T02:52:24.813Z,7.03
2022-10-31T02:54:29.513Z,5.90
2022-10-31T02:56:32.131Z,5.70
2022-10-31T02:58:44.638Z,6.43
2022-10-31T03:01:03.049Z,6.60
2022-10-31T03:03:25.229Z,6.80
2022-10-31T03:05:50.904Z,5.37
2022-10-31T03:08:02.296Z,6.00
2022-10-31T03:10:45.786Z,6.10
2022-10-31T03:13:01.719Z,6.97
2022-10-31T03:15:22.457Z,6.45
2022-10-31T03:17:38.492Z,7.23
2022-10-31T03:19:47.099Z,5.83
2022-10-31T03:21:56.693Z,6.47
2022-10-31T03:24:01.837Z,6.80
2022-10-31T03:26:07.187Z,7.00
2022-10-31T03:28:12.736Z,9.13
2022-10-31T03:30:16.408Z,8.40
2022-10-31T03:32:50.326Z,8.20
2022-10-31T03:34:58.455Z,7.50
2022-10-31T03:37:06.111Z,7.57
2022-10-31T03:39:14.464Z,7.00
2022-10-31T03:41:23.507Z,7.90
2022-10-31T03:43:31.658Z,7.50
2022-10-31T03:45:42.178Z,7.77
2022-10-31T03:47:45.609Z,7.13
2022-10-31T03:49:48.243Z,8.00
2022-10-31T03:52:13.643Z,8.13
2022-10-31T03:54:53.254Z,9.00
2022-10-31T03:57:15.642Z,9.23
2022-10-31T03:59:48.576Z,9.20
2022-10-31T04:01:57.519Z,8.50
2022-10-31T04:04:01.189Z,8.02
2022-10-31T04:06:09.268Z,8.20
2022-10-31T04:08:18.617Z,8.13
2022-10-31T04:10:22.959Z,6.97
2022-10-31T04:12:27.673Z,8.13
2022-10-31T04:14:49.700Z,7.20
2022-10-31T04:16:52.986Z,6.77
2022-10-31T04:19:00.330Z,7.23
2022-10-31T04:21:08.445Z,7.10
2022-10-31T04:23:26.467Z,6.40
2022-10-31T04:25:29.903Z,6.20
2022-10-31T04:27:42.508Z,6.47
2022-10-31T04:29:48.280Z,6.53
2022-10-31T04:31:53.332Z,6.33
2022-10-31T04:33:55.843Z,6.97
2022-10-31T04:35:58.550Z,7.07
2022-10-31T04:38:01.117Z,6.10
2022-10-31T04:40:05.861Z,6.20
2022-10-31T04:42:31.082Z,6.03
2022-10-31T04:44:35.948Z,6.53
2022-10-31T04:46:38.804Z,6.30
2022-10-31T04:48:41.419Z,6.33
2022-10-31T04:50:44.064Z,5.57
2022-10-31T04:52:47.328Z,5.00
2022-10-31T04:54:53.256Z,5.77
2022-10-31T04:57:22.328Z,5.10
2022-10-31T04:59:25.260Z,5.10
2022-10-31T05:01:30.345Z,5.70
2022-10-31T05:03:34.742Z,5.33
2022-10-31T05:05:38.034Z,5.83
2022-10-31T05:07:43.274Z,5.70
2022-10-31T05:09:45.865Z,6.20
2022-10-31T05:11:49.439Z,5.90
2022-10-31T05:14:11.918Z,5.30
2022-10-31T05:16:33.854Z,5.73
2022-10-31T05:18:59.203Z,5.07
2022-10-31T05:21:13.576Z,5.27
2022-10-31T05:23:22.010Z,5.00
2022-10-31T05:25:27.856Z,5.20
2022-10-31T05:27:30.383Z,5.60
2022-10-31T05:29:34.427Z,5.60
2022-10-31T05:31:38.896Z,5.43
2022-10-31T05:33:43.828Z,5.30
2022-10-31T05:36:24.227Z,4.73
2022-10-31T05:38:36.625Z,4.97
2022-10-31T05:40:47.918Z,5.47
2022-10-31T05:42:57.547Z,5.30
2022-10-31T05:45:00.531Z,6.10
2022-10-31T05:47:14.146Z,6.27
2022-10-31T05:49:31.748Z,5.77
2022-10-31T05:51:53.039Z,6.03
2022-10-31T05:53:59.576Z,6.43
2022-10-31T05:56:02.734Z,5.20
2022-10-31T05:58:05.974Z,4.80
2022-10-31T06:00:11.165Z,5.57
2022-10-31T06:02:23.615Z,5.90
2022-10-31T06:04:50.500Z,5.00
2022-10-31T06:06:53.297Z,4.87
2022-10-31T06:08:56.036Z,5.60
2022-10-31T06:12:16.919Z,5.30
2022-10-31T06:14:38.205Z,5.63
2022-10-31T06:16:40.902Z,6.50
2022-10-31T06:19:03.436Z,5.53
2022-10-31T06:21:34.513Z,5.50
2022-10-31T06:23:37.061Z,5.40
2022-10-31T06:26:05.591Z,5.00
2022-10-31T06:28:08.137Z,4.67
2022-10-31T06:30:23.022Z,4.57
2022-10-31T06:32:25.859Z,5.43
2022-10-31T06:34:28.400Z,5.13
2022-10-31T06:36:31.012Z,4.40
2022-10-31T06:38:34.416Z,4.80
2022-10-31T06:40:37.126Z,5.10
2022-10-31T06:43:02.896Z,5.33
2022-10-31T06:45:07.792Z,4.50
2022-10-31T06:48:15.429Z,4.65
2022-10-31T06:50:33.877Z,4.43
2022-10-31T06:52:36.463Z,3.70
2022-10-31T06:54:40.437Z,4.20
2022-10-31T06:56:43.342Z,4.53
2022-10-31T06:58:46.674Z,4.35
2022-10-31T07:00:49.894Z,4.40
2022-10-31T07:03:02.065Z,4.17
2022-10-31T07:05:05.582Z,4.33
2022-10-31T07:07:09.231Z,4.40
2022-10-31T07:09:13.927Z,4.30
2022-10-31T07:11:16.530Z,4.83
2022-10-31T07:13:26.849Z,4.20
2022-10-31T07:15:39.972Z,4.67
2022-10-31T07:17:43.023Z,5.03
2022-10-31T07:19:45.689Z,4.80
2022-10-31T07:21:51.761Z,4.93
2022-10-31T07:23:54.428Z,4.80
2022-10-31T07:26:15.505Z,5.72
2022-10-31T07:28:23.371Z,5.50
2022-10-31T07:30:28.123Z,4.73
2022-10-31T07:32:41.273Z,5.07
2022-10-31T07:34:47.389Z,4.97
2022-10-31T07:36:53.114Z,5.10
2022-10-31T07:38:56.136Z,5.33
2022-10-31T07:40:58.808Z,4.70
2022-10-31T07:43:05.470Z,5.67
2022-10-31T07:45:54.272Z,5.13
2022-10-31T07:48:15.616Z,5.10
2022-10-31T07:50:36.933Z,5.30
2022-10-31T07:53:03.708Z,5.20
2022-10-31T07:55:20.640Z,4.43
2022-10-31T07:57:25.342Z,5.10
2022-10-31T07:59:28.559Z,5.13
2022-10-31T08:01:31.216Z,5.20
2022-10-31T08:04:00.134Z,5.97
2022-10-31T08:06:41.134Z,6.20
2022-10-31T08:08:54.467Z,6.07
2022-10-31T08:10:56.999Z,6.10
2022-10-31T08:13:05.758Z,5.83
2022-10-31T08:15:10.060Z,7.23
2022-10-31T08:17:13.334Z,6.00
2022-10-31T08:19:22.749Z,7.50
2022-10-31T08:21:26.493Z,7.05
2022-10-31T08:23:29.069Z,7.77
2022-10-31T08:25:38.429Z,8.10
2022-10-31T08:27:41.736Z,8.33
2022-10-31T08:29:52.214Z,7.70
2022-10-31T08:31:54.800Z,7.70
2022-10-31T08:34:29.506Z,7.43
2022-10-31T08:36:53.288Z,6.83
2022-10-31T08:39:03.704Z,6.57
2022-10-31T08:41:06.806Z,6.87
2022-10-31T08:43:17.460Z,7.80
2022-10-31T08:45:20.532Z,7.33
2022-10-31T08:47:23.198Z,7.40
2022-10-31T08:49:25.767Z,9.07
2022-10-31T08:51:30.128Z,9.13
2022-10-31T08:53:33.168Z,10.13
2022-10-31T08:55:56.955Z,10.87
2022-10-31T08:58:01.609Z,10.50
2022-10-31T09:00:13.068Z,9.83
2022-10-31T09:02:21.477Z,12.80
2022-10-31T09:04:26.340Z,13.27
2022-10-31T09:06:30.322Z,16.83
2022-10-31T09:08:34.078Z,15.60
2022-10-31T09:10:38.939Z,16.80
2022-10-31T09:12:42.785Z,17.00
2022-10-31T09:15:03.630Z,16.97
2022-10-31T09:17:15.156Z,16.60
2022-10-31T09:19:38.429Z,15.80
2022-10-31T09:21:42.536Z,15.87
2022-10-31T09:23:45.067Z,16.17
2022-10-31T09:25:51.159Z,16.60
2022-10-31T09:28:07.885Z,16.90
2022-10-31T09:30:11.261Z,15.70
2022-10-31T09:32:14.389Z,15.97
2022-10-31T09:34:21.522Z,16.37
2022-10-31T09:36:49.903Z,15.93
2022-10-31T09:38:56.802Z,14.80
2022-10-31T09:42:22.161Z,18.67
2022-10-31T09:45:18.208Z,14.30
2022-10-31T09:48:29.074Z,19.50
2022-10-31T09:51:08.633Z,15.50
2022-10-31T09:53:40.188Z,16.77
2022-10-31T09:55:51.351Z,16.10
2022-10-31T09:57:54.618Z,16.57
2022-10-31T09:59:59.747Z,18.30
2022-10-31T10:02:07.238Z,17.27
2022-10-31T10:04:45.770Z,17.70
2022-10-31T10:06:54.308Z,17.83
2022-10-31T10:09:26.633Z,17.33
2022-10-31T10:12:25.203Z,17.30
2022-10-31T10:14:58.064Z,19.60
2022-10-31T10:17:18.573Z,19.03
2022-10-31T10:19:54.441Z,18.60
2022-10-31T10:22:38.457Z,16.43
2022-10-31T10:25:12.101Z,16.57
2022-10-31T10:27:55.509Z,15.23
2022-10-31T10:30:24.470Z,14.40
2022-10-31T10:32:49.339Z,14.63
2022-10-31T10:35:05.328Z,14.40
2022-10-31T10:37:29.231Z,13.13
2022-10-31T10:39:45.339Z,13.13
2022-10-31T10:42:10.989Z,13.10
2022-10-31T10:44:13.502Z,11.60
2022-10-31T10:47:00.971Z,11.87
2022-10-31T10:49:43.214Z,12.45
2022-10-31T10:52:20.315Z,11.60
2022-10-31T10:55:00.724Z,10.77
2022-10-31T10:57:40.238Z,9.93
2022-10-31T10:59:51.916Z,10.40
2022-10-31T11:01:54.475Z,8.83
2022-10-31T11:03:57.406Z,11.03
2022-10-31T11:06:00.830Z,8.63
2022-10-31T11:08:05.180Z,9.10
2022-10-31T11:10:17.311Z,12.83
2022-10-31T11:12:37.666Z,11.90
2022-10-31T11:14:54.182Z,10.53
2022-10-31T11:17:16.445Z,13.23
2022-10-31T11:19:27.896Z,12.53
2022-10-31T11:21:34.344Z,10.80
2022-10-31T11:23:36.887Z,13.77
2022-10-31T11:25:39.408Z,17.43
2022-10-31T11:27:41.975Z,19.27
2022-10-31T11:29:45.666Z,19.87
2022-10-31T11:31:51.456Z,18.27
2022-10-31T11:34:08.058Z,16.33
2022-10-31T11:36:25.071Z,16.70
2022-10-31T11:38:42.084Z,14.70
2022-10-31T11:40:55.798Z,15.70
2022-10-31T11:43:00.378Z,13.90
2022-10-31T11:45:16.450Z,14.77
2022-10-31T11:47:28.215Z,16.30
2022-10-31T11:49:39.259Z,14.50
2022-10-31T11:51:42.073Z,18.40
2022-10-31T11:53:56.804Z,18.90
2022-10-31T11:56:15.631Z,17.70
2022-10-31T11:59:33.200Z,15.80
2022-10-31T12:01:37.771Z,16.17
2022-10-31T12:04:08.675Z,13.77
2022-10-31T12:06:23.323Z,14.13
2022-10-31T12:08:31.546Z,12.80
2022-10-31T12:11:25.311Z,14.00
2022-10-31T12:13:47.756Z,16.13
2022-10-31T12:16:03.816Z,19.67
2022-10-31T12:18:16.156Z,17.50
2022-10-31T12:20:41.981Z,15.83
2022-10-31T12:23:15.951Z,15.10
2022-10-31T12:25:47.732Z,15.50
2022-10-31T12:28:15.534Z,15.27
2022-10-31T12:30:26.139Z,16.60
2022-10-31T12:33:15.009Z,12.90
2022-10-31T12:38:02.555Z,13.43
2022-10-31T12:40:28.227Z,13.60
2022-10-31T12:43:12.794Z,14.53
2022-10-31T12:45:33.243Z,13.20
2022-10-31T12:48:10.047Z,15.77
2022-10-31T12:50:48.720Z,11.50
2022-10-31T12:53:24.725Z,12.40
2022-10-31T12:55:42.608Z,13.73
2022-10-31T12:57:52.223Z,11.50
2022-10-31T13:00:19.340Z,10.60
2022-10-31T13:02:43.705Z,14.03
2022-10-31T13:05:05.228Z,12.03
2022-10-31T13:07:18.600Z,11.40
2022-10-31T13:09:32.216Z,8.03
2022-10-31T13:11:59.111Z,8.80
2022-10-31T13:14:42.912Z,16.07
2022-10-31T13:16:48.634Z,21.20
2022-10-31T13:19:07.045Z,16.37
2022-10-31T13:21:18.092Z,14.20
2022-10-31T13:23:48.936Z,13.77
2022-10-31T13:25:56.394Z,13.20
2022-10-31T13:28:04.429Z,14.33
2022-10-31T13:30:26.394Z,13.10
2022-10-31T13:33:03.956Z,10.70
2022-10-31T13:35:24.695Z,11.83
2022-10-31T13:37:43.376Z,11.40
2022-10-31T13:40:24.362Z,10.20
2022-10-31T13:42:45.160Z,10.60
2022-10-31T13:45:16.788Z,10.60
2022-10-31T13:47:30.197Z,10.60
2022-10-31T13:49:32.825Z,11.30
2022-10-31T13:51:36.247Z,10.77
2022-10-31T13:53:54.514Z,12.57
2022-10-31T13:56:38.574Z,15.03
2022-10-31T13:59:00.358Z,16.43
2022-10-31T14:01:11.966Z,18.83
2022-10-31T14:03:36.370Z,18.03
2022-10-31T14:05:53.282Z,17.00
2022-10-31T14:07:57.833Z,18.20
2022-10-31T14:10:06.948Z,18.27
2022-10-31T14:12:27.535Z,15.63
2022-10-31T14:14:43.846Z,12.87
2022-10-31T14:16:55.793Z,14.73
2022-10-31T14:19:08.297Z,19.43
2022-10-31T14:21:25.664Z,15.50
2022-10-31T14:23:55.147Z,13.80
2022-10-31T14:26:28.203Z,11.20
2022-10-31T14:28:36.286Z,11.53
2022-10-31T14:30:38.877Z,13.10
2022-10-31T14:32:43.649Z,14.00
2022-10-31T14:34:51.959Z,11.93
2022-10-31T14:37:15.301Z,11.97
2022-10-31T14:39:39.750Z,9.73
2022-10-31T14:41:56.251Z,10.40
2022-10-31T14:48:42.444Z,8.27
2022-10-31T14:50:51.610Z,8.35
2022-10-31T14:52:58.477Z,16.03
2022-10-31T14:55:02.566Z,15.90
2022-10-31T14:57:26.692Z,14.10
2022-10-31T14:59:35.280Z,12.63
2022-10-31T15:01:40.888Z,12.80
2022-10-31T15:04:10.149Z,12.07
2022-10-31T15:06:15.962Z,11.90
2022-10-31T15:08:58.121Z,11.00
2022-10-31T15:11:10.291Z,11.02
2022-10-31T15:13:22.605Z,12.67
2022-10-31T15:15:27.714Z,11.00
2022-10-31T15:17:30.254Z,9.70
2022-10-31T15:19:34.752Z,10.00
2022-10-31T15:21:48.446Z,9.45
2022-10-31T15:23:54.379Z,9.00
2022-10-31T15:26:05.581Z,15.25
2022-10-31T15:28:18.155Z,18.85
2022-10-31T15:30:28.076Z,20.53
2022-10-31T15:32:30.819Z,29.00
2022-10-31T15:34:43.591Z,32.37
2022-10-31T15:36:51.054Z,31.87
2022-10-31T15:38:57.247Z,29.10
2022-10-31T15:41:07.045Z,35.20
2022-10-31T15:43:17.664Z,32.37
2022-10-31T15:45:27.990Z,30.50
2022-10-31T15:47:33.349Z,32.57
2022-10-31T15:49:42.142Z,31.80
2022-10-31T15:51:44.760Z,26.97
2022-10-31T15:53:52.734Z,26.45
2022-10-31T15:56:04.012Z,24.70
2022-10-31T15:58:14.873Z,25.13
2022-10-31T16:00:33.204Z,23.87
2022-10-31T16:02:35.907Z,22.60
2022-10-31T16:04:38.550Z,22.40
2022-10-31T16:06:41.167Z,21.63
2022-10-31T16:08:50.390Z,24.57
2022-10-31T16:11:15.885Z,22.90
2022-10-31T16:13:19.400Z,21.30
2022-10-31T16:15:22.571Z,21.70
2022-10-31T16:17:28.406Z,20.33
2022-10-31T16:19:37.278Z,20.37
2022-10-31T16:21:40.514Z,19.23
2022-10-31T16:23:49.322Z,18.10
2022-10-31T16:25:53.002Z,18.90
2022-10-31T16:28:04.935Z,18.03
2022-10-31T16:30:29.064Z,17.13
2022-10-31T16:33:00.962Z,17.03
2022-10-31T16:35:10.212Z,17.30
2022-10-31T16:37:12.765Z,17.20
2022-10-31T16:39:18.242Z,19.40
2022-10-31T16:41:21.515Z,19.67
2022-10-31T16:43:25.015Z,16.50
2022-10-31T16:45:31.072Z,15.80
2022-10-31T16:47:33.613Z,15.70
2022-10-31T16:49:36.203Z,16.90
2022-10-31T16:51:38.935Z,16.00
2022-10-31T16:53:46.436Z,15.37
2022-10-31T16:55:59.490Z,16.20
2022-10-31T16:58:03.473Z,14.33
2022-10-31T17:00:07.040Z,13.18
2022-10-31T17:02:16.689Z,15.17
2022-10-31T17:04:19.297Z,14.53
2022-10-31T17:06:21.854Z,17.05
2022-10-31T17:08:25.513Z,14.57
2022-10-31T17:10:28.331Z,13.60
2022-10-31T17:12:32.551Z,15.02
2022-10-31T17:14:35.458Z,14.33
2022-10-31T17:16:38.726Z,13.40
2022-10-31T17:18:41.546Z,12.40
2022-10-31T17:21:02.063Z,13.13
2022-10-31T17:23:05.749Z,13.20
2022-10-31T17:25:26.280Z,12.00
2022-10-31T17:27:28.876Z,12.25
2022-10-31T17:29:31.639Z,10.50
2022-10-31T17:31:36.812Z,11.73
2022-10-31T17:33:39.462Z,12.27
2022-10-31T17:35:43.215Z,12.82
2022-10-31T17:37:51.650Z,12.70
2022-10-31T17:39:54.181Z,14.13
2022-10-31T17:41:56.748Z,20.73
2022-10-31T17:44:11.466Z,20.87
2022-10-31T17:46:14.155Z,30.90
2022-10-31T17:48:16.659Z,31.53
2022-10-31T17:50:23.956Z,32.13
2022-10-31T17:52:26.786Z,32.43
2022-10-31T17:54:29.390Z,31.30
2022-10-31T17:56:31.913Z,32.53
2022-10-31T17:58:38.319Z,32.70
2022-10-31T18:00:45.964Z,34.35
2022-10-31T18:02:51.824Z,32.40
2022-10-31T18:04:54.319Z,30.30
2022-10-31T18:06:56.900Z,28.33
2022-10-31T18:09:04.303Z,28.33
2022-10-31T18:11:18.068Z,29.10
2022-10-31T18:13:22.844Z,28.20
2022-10-31T18:15:25.614Z,27.27
2022-10-31T18:17:28.232Z,25.37
2022-10-31T18:19:30.784Z,23.80
2022-10-31T18:21:33.445Z,23.00
2022-10-31T18:23:36.114Z,21.17
2022-10-31T18:25:40.083Z,22.63
2022-10-31T18:27:42.567Z,24.03
2022-10-31T18:29:45.625Z,30.50
2022-10-31T18:31:48.968Z,25.83
2022-10-31T18:33:56.084Z,23.80
2022-10-31T18:36:06.499Z,20.83
2022-10-31T18:38:09.746Z,21.00
2022-10-31T18:40:13.286Z,21.90
2022-10-31T18:42:15.839Z,25.27
2022-10-31T18:44:18.375Z,24.43
2022-10-31T18:46:23.160Z,26.97
2022-10-31T18:48:28.319Z,28.05
2022-10-31T18:50:30.951Z,25.63
2022-10-31T18:52:33.545Z,23.20
2022-10-31T18:54:36.281Z,24.17
2022-10-31T18:56:38.899Z,24.00
2022-10-31T18:58:41.531Z,22.33
2022-10-31T19:00:44.966Z,22.17
2022-10-31T19:02:49.752Z,19.90
2022-10-31T19:04:52.295Z,21.93
2022-10-31T19:06:56.257Z,24.30
2022-10-31T19:09:05.788Z,22.30
2022-10-31T19:11:13.398Z,20.63
2022-10-31T19:13:16.092Z,18.67
2022-10-31T19:15:27.650Z,18.47
2022-10-31T19:17:30.180Z,18.55
2022-10-31T19:19:32.841Z,17.73
2022-10-31T19:21:35.359Z,18.40
2022-10-31T19:23:38.263Z,19.27
2022-10-31T19:25:41.067Z,19.20
2022-10-31T19:27:43.662Z,20.98
2022-10-31T19:29:46.344Z,17.40
2022-10-31T19:31:49.028Z,17.60
2022-10-31T19:33:52.041Z,17.90
2022-10-31T19:35:59.174Z,15.57
2022-10-31T19:38:01.961Z,14.80
2022-10-31T19:40:08.153Z,15.60
2022-10-31T19:42:11.146Z,14.53
2022-10-31T19:44:16.005Z,14.97
2022-10-31T19:46:33.807Z,16.50
2022-10-31T19:48:43.903Z,15.97
2022-10-31T19:50:46.428Z,17.57
2022-10-31T19:52:49.020Z,16.77
2022-10-31T19:54:51.746Z,17.90
2022-10-31T19:56:54.323Z,23.60
2022-10-31T19:58:59.820Z,23.83
2022-10-31T20:01:11.755Z,27.30
2022-10-31T20:03:18.332Z,27.63
2022-10-31T20:05:25.256Z,27.70
2022-10-31T20:07:27.808Z,26.07
2022-10-31T20:09:30.345Z,25.57
2022-10-31T20:11:33.015Z,23.23
2022-10-31T20:13:44.254Z,23.07
2022-10-31T20:15:46.761Z,19.83
2022-10-31T20:17:49.308Z,21.97
2022-10-31T20:19:52.075Z,18.63
2022-10-31T20:21:55.814Z,19.30
2022-10-31T20:24:02.232Z,16.90
2022-10-31T20:26:06.201Z,18.77
2022-10-31T20:28:09.918Z,17.90
2022-10-31T20:30:13.151Z,18.90
2022-10-31T20:32:15.724Z,18.83
2022-10-31T20:34:18.238Z,21.90
2022-10-31T20:36:23.484Z,24.10
2022-10-31T20:38:26.069Z,24.60
2022-10-31T20:40:28.605Z,26.23
2022-10-31T20:42:31.159Z,25.80
2022-10-31T20:44:33.792Z,32.17
2022-10-31T20:46:36.359Z,28.07
2022-10-31T20:48:39.367Z,27.60
2022-10-31T20:50:49.013Z,25.20
2022-10-31T20:52:53.882Z,21.80
2022-10-31T20:54:58.719Z,23.02
2022-10-31T20:57:30.221Z,21.50
2022-10-31T20:59:32.831Z,18.33
2022-10-31T21:01:38.024Z,19.17
2022-10-31T21:03:40.623Z,18.30
2022-10-31T21:05:43.187Z,17.60
2022-10-31T21:07:45.798Z,17.97
2022-10-31T21:09:52.541Z,23.83
2022-10-31T21:11:55.271Z,18.60
2022-10-31T21:13:59.742Z,19.30
2022-10-31T21:16:06.351Z,18.60
2022-10-31T21:18:09.741Z,17.23
2022-10-31T21:20:12.414Z,17.13
2022-10-31T21:22:15.032Z,17.63
2022-10-31T21:24:21.765Z,17.13
2022-10-31T21:26:27.877Z,17.53
2022-10-31T21:28:30.420Z,19.40
2022-10-31T21:30:33.546Z,16.73
2022-10-31T21:32:36.534Z,16.97
2022-10-31T21:34:39.176Z,16.77
2022-10-31T21:36:41.775Z,17.60
2022-10-31T21:38:44.400Z,17.60
2022-10-31T21:40:46.933Z,17.27
2022-10-31T21:42:49.432Z,19.60
2022-10-31T21:44:53.182Z,18.00
2022-10-31T21:46:55.711Z,18.10
2022-10-31T21:48:58.563Z,17.90
2022-10-31T21:51:05.320Z,17.73
2022-10-31T21:53:26.851Z,16.77
2022-10-31T21:55:29.377Z,16.17
2022-10-31T21:57:33.107Z,14.30
2022-10-31T21:59:35.599Z,16.33
2022-10-31T22:01:38.684Z,15.53
2022-10-31T22:03:42.631Z,15.17
2022-10-31T22:05:45.220Z,15.00
2022-10-31T22:07:47.948Z,17.40
2022-10-31T22:09:50.541Z,16.00
2022-10-31T22:11:53.113Z,14.87
2022-10-31T22:13:58.039Z,17.33
2022-10-31T22:16:05.179Z,16.40
2022-10-31T22:18:07.763Z,14.43
2022-10-31T22:20:10.671Z,16.03
2022-10-31T22:22:13.329Z,15.13
2022-10-31T22:24:17.452Z,13.90
2022-10-31T22:26:20.581Z,14.03
2022-10-31T22:28:24.149Z,25.47
2022-10-31T22:30:26.642Z,24.00
2022-10-31T22:32:29.205Z,21.60
2022-10-31T22:34:31.808Z,23.73
2022-10-31T22:36:35.325Z,25.17
2022-10-31T22:38:40.286Z,31.73
2022-10-31T22:40:47.112Z,29.80
2022-10-31T22:42:49.643Z,35.57
2022-10-31T22:44:52.168Z,42.90
2022-10-31T22:46:54.715Z,34.63
2022-10-31T22:49:04.014Z,39.47
2022-10-31T22:51:09.661Z,38.97
2022-10-31T22:53:15.769Z,42.67
2022-10-31T22:55:18.282Z,46.30
2022-10-31T22:57:20.827Z,50.23
2022-10-31T22:59:24.227Z,47.97
2022-10-31T23:01:30.906Z,42.80
2022-10-31T23:03:33.932Z,37.43
2022-10-31T23:05:36.410Z,41.70
2022-10-31T23:07:40.633Z,48.27
2022-10-31T23:09:45.251Z,52.40
2022-10-31T23:11:47.796Z,62.78
2022-10-31T23:14:09.636Z,70.10
2022-10-31T23:16:13.781Z,63.93
2022-10-31T23:18:36.654Z,63.53
2022-10-31T23:20:55.303Z,58.90
2022-10-31T23:22:57.873Z,67.95
2022-10-31T23:25:00.521Z,59.53
2022-10-31T23:27:09.105Z,59.25
2022-10-31T23:29:11.642Z,58.90
2022-10-31T23:31:16.203Z,55.10
2022-10-31T23:33:18.772Z,56.47
2022-10-31T23:35:21.312Z,58.50
2022-10-31T23:37:27.264Z,55.27
2022-10-31T23:39:29.948Z,53.40
2022-10-31T23:41:32.496Z,53.43
2022-10-31T23:43:35.015Z,55.50
2022-10-31T23:45:37.526Z,57.60
2022-10-31T23:47:43.284Z,57.40
2022-10-31T23:49:46.542Z,62.42
2022-10-31T23:51:49.069Z,58.63
2022-10-31T23:53:51.620Z,53.70
2022-10-31T23:55:56.945Z,50.80
2022-10-31T23:57:59.770Z,51.67
